Latest Weather Observations for Coonawarra

IDS60801

Issued at 2:21 am CDT Wednesday 19 February 2020 (issued every 10 minutes, with the page automatically refreshed every 10 minutes)

About weather observations | Map of weather stations | Latest weather observations for SA | Other Formats
Station Details ID: 026091 Name: COONAWARRA Lat: -37.29 Lon: 140.83 Height: 57.0 m
Data from the previous 72 hours. | See also: Recent months at Coonawarra
Date/Time
CDT
Temp
°C
App
Temp
°C
Dew
Point
°C
Rel
Hum
%
Delta-T
°C
Wind Press
QNH
hPa
Press
MSL
hPa
Rain since
9am
mm
Dir  Spd
km/h
Gust
km/h
Spd
kts
Gust
kts
19/02:00am 14.1 12.6 14.1 100 0.0 SW 15 20 8 11 1013.9 1013.7 2.0
19/01:30am 14.4 13.3 14.4 100 0.0 SW 13 17 7 9 1014.2 1014.0 2.0
19/01:00am 14.4 13.0 14.4 100 0.0 SW 15 20 8 11 1014.4 1014.2 2.0
19/12:30am 13.8 12.9 13.8 100 0.0 SW 11 17 6 9 1014.3 1014.1 2.0
19/12:00am 13.9 12.7 13.9 100 0.0 SSW 13 17 7 9 1014.1 1013.9 2.0
 
Date/Time
CDT
Temp
°C
App
Temp
°C
Dew
Point
°C
Rel
Hum
%
Delta-T
°C
Wind Press
QNH
hPa
Press
MSL
hPa
Rain since
9am
mm
Dir  Spd
km/h
Gust
km/h
Spd
kts
Gust
kts
18/11:30pm 14.2 - 14.3 - - SW 13 15 7 8 1014.2 1014.0 2.0
18/11:00pm 14.3 13.6 14.3 100 0.0 SW 11 15 6 8 1014.1 1013.9 2.0
18/10:30pm 14.2 13.1 14.2 100 0.0 SSW 13 17 7 9 1014.0 1013.8 2.0
18/10:00pm 14.2 13.1 14.2 100 0.0 SSW 13 19 7 10 1013.9 1013.7 2.0
18/09:30pm 14.6 12.9 14.6 100 0.0 SSW 17 24 9 13 1013.8 1013.6 2.0
18/09:00pm 14.9 12.7 14.9 100 0.0 SW 20 28 11 15 1013.5 1013.3 2.0
18/08:30pm 15.1 12.6 15.1 100 0.0 SW 22 37 12 20 1013.1 1012.9 2.0
18/08:00pm 15.0 12.8 14.8 99 0.1 SW 20 33 11 18 1012.8 1012.6 1.8
18/07:30pm 15.5 11.9 14.1 91 0.8 SW 26 39 14 21 1012.4 1012.2 1.8
18/07:00pm 16.2 12.4 13.5 84 1.5 SW 26 44 14 24 1012.1 1011.9 1.8
18/06:30pm 17.0 11.6 12.7 76 2.4 SW 33 46 18 25 1011.7 1011.5 1.8
18/06:00pm 17.3 12.3 13.4 78 2.2 SW 32 48 17 26 1011.4 1011.2 1.8
18/05:45pm 17.9 12.8 13.1 73 2.7 SW 32 50 17 27 1011.2 1011.0 1.8
18/05:30pm 18.3 12.5 12.6 69 3.2 SW 35 50 19 27 1010.9 1010.7 1.8
18/05:22pm 19.0 14.1 13.6 71 3.1 SW 32 50 17 27 1010.9 1010.7 1.8
18/05:00pm 18.1 13.0 13.7 75 2.5 SW 33 48 18 26 1010.7 1010.5 1.8
18/04:39pm 18.0 12.3 13.0 72 2.8 SW 35 57 19 31 1010.5 1010.3 1.8
18/04:30pm 20.0 14.4 11.5 58 4.7 SW 32 48 17 26 1010.1 1009.9 1.8
18/04:09pm 20.0 14.5 12.4 61 4.3 SW 33 52 18 28 1010.0 1009.8 1.8
18/04:00pm 18.3 13.4 13.8 75 2.6 SSW 32 44 17 24 1009.9 1009.7 1.8
18/03:30pm 20.3 14.5 12.7 61 4.3 SW 35 46 19 25 1009.6 1009.4 1.8
18/03:01pm 19.5 14.2 12.6 64 3.9 SW 32 50 17 27 1009.6 1009.4 1.8
18/03:00pm 19.7 14.5 12.8 64 3.9 SW 32 44 17 24 1009.6 1009.4 1.8
18/02:49pm 19.7 14.2 13.6 68 3.5 SW 35 54 19 29 1009.6 1009.4 1.8
18/02:30pm 18.9 13.9 15.0 78 2.3 SW 35 52 19 28 1009.5 1009.3 1.8
18/02:05pm 19.0 14.5 14.9 77 2.4 SW 32 50 17 27 1009.4 1009.2 1.8
18/02:00pm 19.9 16.5 15.7 77 2.5 SW 28 44 15 24 1009.3 1009.1 1.8
18/01:42pm 20.1 15.5 16.1 78 2.4 WSW 35 54 19 29 1009.1 1008.9 1.8
18/01:30pm 19.1 14.7 15.7 80 2.0 WSW 33 48 18 26 1009.1 1008.9 1.8
18/01:00pm 18.0 15.0 16.8 93 0.7 WSW 28 41 15 22 1009.1 1008.9 1.6
18/12:30pm 19.6 17.4 17.0 85 1.6 WSW 24 32 13 17 1008.9 1008.7 1.6
18/12:00pm 20.0 18.2 16.9 82 1.9 WSW 22 32 12 17 1008.9 1008.7 1.4
18/11:30am 17.5 15.8 16.2 92 0.8 WSW 20 30 11 16 1009.3 1009.1 1.4
18/11:00am 19.5 17.0 15.1 76 2.6 WSW 22 32 12 17 1009.0 1008.8 0.0
18/10:30am 19.3 17.3 15.6 79 2.2 WSW 20 28 11 15 1009.0 1008.8 0.0
18/10:00am 18.1 15.8 15.6 85 1.5 WSW 22 30 12 16 1009.0 1008.8 0.0
18/09:30am 18.0 16.0 15.6 86 1.4 WSW 20 28 11 15 1008.9 1008.7 0.0
18/09:00am 17.5 15.8 16.2 92 0.8 WSW 20 30 11 16 1009.1 1008.9 0.6
18/08:30am 17.0 16.0 16.5 97 0.3 WSW 17 24 9 13 1008.9 1008.7 0.6
18/08:00am 16.4 15.7 16.4 100 0.0 W 15 20 8 11 1008.8 1008.6 0.6
18/07:30am 16.2 15.8 16.2 100 0.0 W 13 17 7 9 1008.6 1008.4 0.4
18/07:00am 16.2 16.6 16.2 100 0.0 WNW 9 13 5 7 1008.5 1008.3 0.4
18/06:30am 16.3 15.9 16.3 100 0.0 WNW 13 19 7 10 1008.3 1008.1 0.4
18/06:00am 16.3 16.7 16.3 100 0.0 NW 9 13 5 7 1008.1 1007.9 0.4
18/05:30am 16.4 17.4 16.4 100 0.0 NW 6 9 3 5 1007.4 1007.2 0.4
18/05:00am 16.3 17.7 16.3 100 0.0 W 4 7 2 4 1007.6 1007.4 0.4
18/04:30am 16.2 16.9 16.2 100 0.0 S 7 11 4 6 1007.4 1007.2 0.2
18/04:00am 16.0 15.5 16.0 100 0.0 SW 13 17 7 9 1008.0 1007.8 0.2
18/03:30am 15.8 15.9 15.5 98 0.2 SW 9 15 5 8 1007.6 1007.4 0.2
18/03:00am 15.8 16.1 15.1 96 0.4 S 7 9 4 5 1007.3 1007.1 0.2
18/02:30am 15.9 16.2 15.0 94 0.5 S 7 9 4 5 1007.3 1007.1 0.2
18/02:00am 16.1 16.1 15.1 94 0.6 SSE 9 11 5 6 1007.8 1007.6 0.2
18/01:30am 16.4 16.0 15.2 93 0.7 SSW 11 15 6 8 1008.6 1008.4 0.2
18/01:00am 16.8 16.9 15.4 91 0.8 SSW 9 13 5 7 1009.1 1008.9 0.2
18/12:30am 17.2 17.4 15.7 91 0.9 S 9 13 5 7 1008.9 1008.7 0.2
18/12:00am 17.3 16.4 15.8 91 0.9 SW 15 22 8 12 1009.4 1009.2 0.2
 
Date/Time
CDT
Temp
°C
App
Temp
°C
Dew
Point
°C
Rel
Hum
%
Delta-T
°C
Wind Press
QNH
hPa
Press
MSL
hPa
Rain since
9am
mm
Dir  Spd
km/h
Gust
km/h
Spd
kts
Gust
kts
17/11:30pm 17.5 18.0 15.6 89 1.1 S 7 11 4 6 1009.2 1009.0 0.2
17/11:00pm 18.1 17.5 15.7 86 1.4 WSW 13 19 7 10 1009.9 1009.7 0.2
17/10:30pm 18.5 17.8 15.5 83 1.8 ESE 13 20 7 11 1008.5 1008.3 0.2
17/10:00pm 18.5 17.1 15.6 83 1.7 E 17 24 9 13 1008.8 1008.6 0.2
17/09:47pm 18.5 17.5 15.6 83 1.7 ESE 15 26 8 14 1008.8 1008.6 0.2
17/09:30pm 19.3 18.9 15.2 77 2.4 SSW 11 15 6 8 1010.8 1010.6 0.0
17/09:00pm 20.2 19.1 14.2 68 3.5 S 13 19 7 10 1011.3 1011.1 0.0
17/08:30pm 20.4 18.1 14.2 67 3.6 SW 19 28 10 15 1010.9 1010.7 0.0
17/08:00pm 21.8 19.1 13.5 59 4.8 SW 20 32 11 17 1010.8 1010.6 0.0
17/07:30pm 23.5 20.5 12.1 48 6.5 SW 19 30 10 16 1010.4 1010.2 0.0
17/07:00pm 25.7 22.1 10.5 38 8.5 SW 20 30 11 16 1010.2 1010.0 0.0
17/06:30pm 27.2 23.9 11.0 36 9.2 SW 19 28 10 15 1009.7 1009.5 0.0
17/06:00pm 28.4 25.4 10.7 33 10.1 SW 17 24 9 13 1009.4 1009.2 0.0
17/05:30pm 28.4 26.2 10.9 33 10.0 SSW 13 22 7 12 1009.2 1009.0 0.0
17/05:00pm 29.0 26.0 10.6 32 10.5 SW 17 24 9 13 1009.4 1009.2 0.0
17/04:30pm 28.7 26.4 10.4 32 10.4 SW 13 24 7 13 1009.4 1009.2 0.0
17/04:00pm 29.4 27.4 11.4 32 10.4 SSW 13 19 7 10 1009.3 1009.1 0.0
17/03:30pm 28.4 26.1 11.6 35 9.7 SSW 15 24 8 13 1009.6 1009.4 0.0
17/03:00pm 28.1 26.9 11.7 36 9.5 SSW 9 17 5 9 1010.2 1010.0 0.0
17/02:30pm 28.1 25.8 11.6 36 9.5 WSW 15 22 8 12 1010.8 1010.6 0.0
17/02:00pm 27.3 25.0 11.7 37 9.0 SW 15 20 8 11 1011.0 1010.8 0.0
17/01:30pm 26.3 24.6 12.5 42 8.0 WSW 13 24 7 13 1011.3 1011.1 0.0
17/01:00pm 26.2 25.7 13.9 46 7.3 WSW 9 19 5 10 1011.8 1011.6 0.0
17/12:30pm 25.3 24.2 14.2 50 6.6 WSW 13 19 7 10 1012.2 1012.0 0.0
17/12:00pm 24.6 24.2 15.1 55 5.7 WSW 11 19 6 10 1012.4 1012.2 0.0
17/11:30am 23.4 23.2 15.8 62 4.6 SW 11 19 6 10 1012.6 1012.4 0.0
17/11:00am 21.9 22.2 16.1 69 3.5 SW 9 17 5 9 1012.7 1012.5 0.0
17/10:30am 21.1 21.7 16.7 76 2.7 SW 9 15 5 8 1012.8 1012.6 0.0
17/10:00am 19.0 19.9 16.2 84 1.7 SSW 6 9 3 5 1012.9 1012.7 0.0
17/09:30am 17.8 18.6 15.8 88 1.2 ESE 6 9 3 5 1013.0 1012.8 0.0
17/09:00am 15.7 16.8 15.7 100 0.0 SSE 4 7 2 4 1013.1 1012.9 0.0
17/08:30am 13.8 14.6 13.7 99 0.1 SW 2 6 1 3 1012.9 1012.7 0.0
17/08:00am 12.2 12.9 12.2 100 0.0 CALM 0 0 0 0 1012.9 1012.7 0.0
17/07:30am 11.1 11.5 11.1 100 0.0 CALM 0 0 0 0 1012.5 1012.3 0.0
17/07:00am 10.7 10.2 10.7 100 0.0 N 4 9 2 5 1012.1 1011.9 0.0
17/06:30am 10.3 10.1 10.3 100 0.0 SSE 2 6 1 3 1011.8 1011.6 0.0
17/06:00am 11.8 11.0 11.8 100 0.0 S 7 9 4 5 1011.5 1011.3 0.0
17/05:30am 11.0 10.0 11.0 100 0.0 S 7 9 4 5 1011.6 1011.4 0.0
17/05:00am 11.7 10.9 11.7 100 0.0 S 7 9 4 5 1011.5 1011.3 0.0
17/04:30am 11.8 10.7 11.8 100 0.0 S 9 11 5 6 1011.4 1011.2 0.0
17/04:00am 11.5 10.6 11.5 100 0.0 SSW 7 9 4 5 1011.3 1011.1 0.0
17/03:30am 11.3 11.0 11.3 100 0.0 WNW 4 6 2 3 1011.4 1011.2 0.0
17/03:00am 11.8 11.0 11.8 100 0.0 SW 7 9 4 5 1011.6 1011.4 0.0
17/02:30am 12.2 11.2 12.2 100 0.0 SW 9 9 5 5 1011.6 1011.4 0.0
17/02:00am 12.5 12.0 12.5 100 0.0 SSW 7 7 4 4 1012.0 1011.8 0.0
17/01:30am 13.0 12.2 12.8 99 0.1 SSW 9 11 5 6 1012.2 1012.0 0.0
17/01:00am 13.3 12.5 12.8 97 0.3 SSW 9 9 5 5 1012.4 1012.2 0.0
17/12:30am 13.7 12.9 13.0 96 0.4 SSW 9 11 5 6 1012.5 1012.3 0.0
17/12:00am 13.8 13.1 13.1 96 0.4 SSW 9 11 5 6 1012.6 1012.4 0.0
 
Date/Time
CDT
Temp
°C
App
Temp
°C
Dew
Point
°C
Rel
Hum
%
Delta-T
°C
Wind Press
QNH
hPa
Press
MSL
hPa
Rain since
9am
mm
Dir  Spd
km/h
Gust
km/h
Spd
kts
Gust
kts
16/11:30pm 14.1 13.4 13.2 94 0.5 SSW 9 9 5 5 1012.7 1012.5 0.0
16/11:00pm 15.0 14.5 13.9 93 0.6 SW 9 11 5 6 1013.0 1012.8 0.0
16/10:30pm 15.8 15.5 14.4 91 0.8 SW 9 11 5 6 1013.3 1013.1 0.0
16/10:00pm 16.8 16.4 15.1 90 1.0 SSW 11 13 6 7 1013.2 1013.0 0.0
16/09:30pm 17.4 17.1 15.5 89 1.1 SW 11 11 6 6 1013.0 1012.8 0.0
16/09:00pm 18.4 17.8 15.7 84 1.6 SSW 13 17 7 9 1012.8 1012.6 0.0
16/08:30pm 19.2 18.2 15.7 80 2.1 SW 15 20 8 11 1012.6 1012.4 0.0
16/08:00pm 20.1 18.8 15.9 77 2.5 SSW 17 24 9 13 1012.4 1012.2 0.0
16/07:30pm 21.4 20.1 15.9 71 3.3 SSW 17 26 9 14 1012.2 1012.0 0.0
16/07:00pm 22.3 20.3 15.6 66 4.0 SSW 20 28 11 15 1011.9 1011.7 0.0
16/06:30pm 23.1 21.3 15.6 62 4.5 SSW 19 28 10 15 1011.7 1011.5 0.0
16/06:00pm 23.1 21.1 15.4 62 4.6 SSW 20 26 11 14 1011.9 1011.7 0.0
16/05:30pm 23.5 22.0 15.2 59 5.0 SSW 17 22 9 12 1012.0 1011.8 0.0
16/05:00pm 23.8 21.9 15.1 58 5.2 SSW 19 26 10 14 1012.2 1012.0 0.0
16/04:30pm 22.5 20.4 14.7 61 4.6 S 19 32 10 17 1012.4 1012.2 0.0
16/04:00pm 22.9 21.0 14.2 58 5.1 S 17 24 9 13 1012.7 1012.5 0.0
16/03:30pm 23.3 21.4 14.1 56 5.4 S 17 26 9 14 1012.9 1012.7 0.0
16/03:00pm 23.1 21.2 14.3 57 5.2 S 17 28 9 15 1013.3 1013.1 0.0
16/02:30pm 22.6 20.7 14.1 58 5.0 S 17 26 9 14 1013.4 1013.2 0.0
16/02:00pm 21.9 20.5 13.4 58 4.9 S 13 20 7 11 1013.6 1013.4 0.0
16/01:30pm 21.7 19.9 13.4 59 4.8 SSE 15 26 8 14 1014.0 1013.8 0.0
16/01:00pm 21.7 20.0 13.6 60 4.7 SE 15 24 8 13 1014.1 1013.9 0.0
16/12:30pm 21.0 18.8 13.3 61 4.4 SE 17 22 9 12 1014.3 1014.1 0.0
16/12:00pm 20.0 18.2 13.2 65 3.9 SSE 15 24 8 13 1014.6 1014.4 0.0
16/11:30am 19.7 17.7 12.8 64 3.9 SE 15 24 8 13 1015.0 1014.8 0.0
16/11:00am 19.1 17.1 12.7 66 3.6 SSE 15 22 8 12 1015.2 1015.0 0.0
16/10:30am 18.1 15.5 12.1 68 3.3 SE 17 24 9 13 1015.3 1015.1 0.0
16/10:00am 17.3 14.3 12.0 71 2.9 SE 19 30 10 16 1015.3 1015.1 0.0
16/09:30am 16.4 13.1 11.6 73 2.6 SSE 20 28 11 15 1015.3 1015.1 0.0
16/09:00am 16.0 13.2 11.4 74 2.5 SE 17 26 9 14 1015.7 1015.5 0.0
16/08:30am 15.5 12.7 11.4 76 2.2 SE 17 24 9 13 1015.4 1015.2 0.0
16/08:00am 15.2 12.7 11.1 76 2.2 SSE 15 26 8 14 1015.5 1015.3 0.0
16/07:30am 15.0 12.2 11.3 78 2.0 SSE 17 26 9 14 1015.4 1015.2 0.0
16/07:00am 14.8 12.3 11.2 79 1.9 SSE 15 22 8 12 1014.9 1014.7 0.0
16/06:30am 14.8 12.3 11.0 78 2.0 SE 15 24 8 13 1014.6 1014.4 0.0
16/06:00am 14.8 12.0 11.2 79 1.9 SSE 17 24 9 13 1014.4 1014.2 0.0
16/05:30am 14.8 12.4 11.4 80 1.8 SSE 15 20 8 11 1014.2 1014.0 0.0
16/05:00am 14.8 12.4 11.4 80 1.8 SE 15 22 8 12 1014.0 1013.8 0.0
16/04:30am 14.9 12.2 11.8 82 1.7 SE 17 26 9 14 1013.9 1013.7 0.0
16/04:00am 14.8 12.6 12.0 83 1.5 SE 15 22 8 12 1013.9 1013.7 0.0
16/03:30am 14.8 13.1 12.6 87 1.2 SSE 13 20 7 11 1014.4 1014.2 0.0
16/03:00am 14.7 13.7 13.4 92 0.7 S 11 17 6 9 1014.8 1014.6 0.0
16/02:30am 14.6 13.7 13.7 94 0.5 SSE 11 17 6 9 1014.9 1014.7 0.0

Other formats

Comma delimited format used in spreadsheet applications
http://www.bom.gov.au/fwo/IDS60801/IDS60801.94817.axf

JavaScript Object Notation format (JSON) in row-major order
http://www.bom.gov.au/fwo/IDS60801/IDS60801.94817.json

Data quality

Most of these data are generated automatically and are frequently updated. Quality checks on data are not normally performed. It is possible for incorrect values to appear. Refer to information at About Latest Weather Observations and please check the disclaimer before using these data.